Time;durP1;ratioP1;P1;durP2;ratioP2;P2;SDS_P1;SDS_P2;PMS_P1;PMS_P2;Temp;Humidity;BMP_temperature;BMP_pressure;BME280_temperature;BME280_humidity;BME280_pressure;Samples;Min_cycle;Max_cycle;Signal;HPM_P1;HPM_P2
2023/04/21 00:00:52;;;;;;;4.37;4.13;;;9.20;55.30;;;;;;20826;6812;116998;-76
2023/04/21 00:03:19;;;;;;;5.50;5.20;;;9.10;55.80;;;;;;20602;6812;306834;-82
2023/04/21 00:05:43;;;;;;;4.95;4.60;;;9.20;55.80;;;;;;20802;6811;116821;-77
2023/04/21 00:08:08;;;;;;;4.80;4.50;;;9.10;56.00;;;;;;20826;6812;117431;-78
2023/04/21 00:10:34;;;;;;;5.43;5.10;;;8.80;56.60;;;;;;20613;6812;281757;-78
2023/04/21 00:12:59;;;;;;;5.55;5.25;;;8.90;56.00;;;;;;20617;6812;337995;-76
2023/04/21 00:15:25;;;;;;;5.10;4.82;;;9.20;55.50;;;;;;20625;6812;277858;-78
2023/04/21 00:17:51;;;;;;;5.30;5.00;;;9.60;54.00;;;;;;20592;6812;306840;-81
2023/04/21 00:20:17;;;;;;;4.70;4.40;;;9.60;54.00;;;;;;20823;6812;117524;-76
2023/04/21 00:22:42;;;;;;;4.90;4.70;;;9.40;54.50;;;;;;20616;6812;306427;-77
2023/04/21 00:25:08;;;;;;;4.60;4.40;;;9.40;54.40;;;;;;20614;6812;344833;-77
2023/04/21 00:27:34;;;;;;;4.82;4.47;;;9.60;53.90;;;;;;20829;6812;117388;-77
2023/04/21 00:29:59;;;;;;;5.07;4.77;;;9.40;54.30;;;;;;20611;6812;305888;-77
2023/04/21 00:32:25;;;;;;;4.35;4.07;;;9.40;54.50;;;;;;20829;6812;117622;-76
2023/04/21 00:34:50;;;;;;;5.60;5.30;;;9.20;55.00;;;;;;20606;6812;320752;-79
2023/04/21 00:37:16;;;;;;;4.68;4.32;;;9.20;54.90;;;;;;20829;6812;117016;-76
2023/04/21 00:39:42;;;;;;;5.27;4.97;;;9.10;54.90;;;;;;20596;6812;277337;-77
2023/04/21 00:42:08;;;;;;;5.30;4.90;;;9.10;54.90;;;;;;20608;6812;322509;-76
2023/04/21 00:44:33;;;;;;;5.00;4.80;;;9.30;54.30;;;;;;20612;6812;302039;-77
2023/04/21 00:46:59;;;;;;;4.53;4.30;;;9.20;54.10;;;;;;20824;6812;119951;-78
2023/04/21 00:49:26;;;;;;;4.00;3.80;;;9.20;54.10;;;;;;20821;6812;117406;-77
2023/04/21 00:51:52;;;;;;;3.50;3.27;;;8.90;55.00;;;;;;20803;6812;119642;-76
2023/04/21 00:54:18;;;;;;;4.50;4.30;;;8.70;55.40;;;;;;20605;6812;307017;-76
2023/04/21 00:56:45;;;;;;;4.03;3.73;;;8.70;55.40;;;;;;20818;6812;117391;-76
2023/04/21 00:59:10;;;;;;;4.17;3.80;;;8.60;55.60;;;;;;20824;6812;122672;-76
2023/04/21 01:01:36;;;;;;;4.80;4.50;;;8.40;56.10;;;;;;20595;6812;277456;-77
2023/04/21 01:04:01;;;;;;;4.65;4.35;;;8.50;55.70;;;;;;20820;6812;117088;-76
2023/04/21 01:06:27;;;;;;;6.18;5.78;;;8.40;55.80;;;;;;20606;6812;335847;-76
2023/04/21 01:08:53;;;;;;;6.30;5.90;;;8.50;55.80;;;;;;20870;6812;116128;-76
2023/04/21 01:11:20;;;;;;;6.85;6.35;;;8.20;56.50;;;;;;20872;6812;73274;-76
2023/04/21 01:13:44;;;;;;;9.50;8.80;;;8.20;56.60;;;;;;20588;6812;339365;-77
2023/04/21 01:16:11;;;;;;;7.97;7.25;;;8.20;56.70;;;;;;20830;6810;118356;-76
2023/04/21 01:18:36;;;;;;;8.63;7.83;;;8.20;56.80;;;;;;20812;6812;116736;-76
2023/04/21 01:21:03;;;;;;;8.13;7.43;;;7.90;57.30;;;;;;20828;6812;116901;-78
2023/04/21 01:23:28;;;;;;;8.33;7.73;;;7.60;58.60;;;;;;20822;6812;117256;-80
2023/04/21 01:25:54;;;;;;;10.13;9.53;;;7.50;58.60;;;;;;20588;6812;277546;-77
2023/04/21 01:28:22;;;;;;;9.02;8.43;;;7.70;58.90;;;;;;20815;6812;118018;-77
2023/04/21 01:30:48;;;;;;;10.30;9.57;;;7.80;59.50;;;;;;20608;6812;307425;-76
2023/04/21 01:33:14;;;;;;;10.18;9.52;;;8.20;57.40;;;;;;20608;6812;298847;-76
2023/04/21 01:35:40;;;;;;;7.90;7.30;;;8.20;57.40;;;;;;20799;6812;117066;-77
2023/04/21 01:38:06;;;;;;;6.82;6.40;;;7.80;57.70;;;;;;20827;6812;125323;-76
2023/04/21 01:40:32;;;;;;;7.10;6.70;;;7.80;57.70;;;;;;20819;6812;116895;-77
2023/04/21 01:42:58;;;;;;;9.25;8.55;;;7.50;58.30;;;;;;20610;6812;277901;-76
2023/04/21 01:45:24;;;;;;;8.17;7.57;;;7.60;58.10;;;;;;20823;6812;117374;-76
2023/04/21 01:47:49;;;;;;;10.30;9.40;;;7.60;58.00;;;;;;20802;6812;117072;-77
2023/04/21 01:50:15;;;;;;;10.48;9.57;;;7.30;58.40;;;;;;20823;6812;117662;-76
2023/04/21 01:52:40;;;;;;;10.48;9.43;;;7.10;59.00;;;;;;20823;6812;117027;-77
2023/04/21 01:55:07;;;;;;;12.00;11.20;;;7.00;59.70;;;;;;20609;6812;325409;-77
2023/04/21 01:57:33;;;;;;;10.10;9.37;;;7.20;60.00;;;;;;20826;6812;118131;-77
2023/04/21 01:59:59;;;;;;;12.23;11.32;;;7.20;59.80;;;;;;20599;6812;300677;-77
2023/04/21 02:02:24;;;;;;;10.20;9.30;;;7.40;59.20;;;;;;20833;6812;117785;-77
2023/04/21 02:04:50;;;;;;;9.57;8.88;;;7.30;58.90;;;;;;20825;6812;117148;-77
2023/04/21 02:07:17;;;;;;;12.40;11.50;;;7.10;59.30;;;;;;20610;6812;316480;-77
2023/04/21 02:09:42;;;;;;;10.80;10.00;;;7.30;58.90;;;;;;20784;6812;118241;-77
2023/04/21 02:12:08;;;;;;;13.43;12.33;;;7.20;58.60;;;;;;20610;6812;293881;-77
2023/04/21 02:14:33;;;;;;;11.82;10.55;;;7.30;58.50;;;;;;20825;6812;117392;-77
2023/04/21 02:16:59;;;;;;;12.88;11.88;;;7.20;58.60;;;;;;20616;6812;322978;-77
2023/04/21 02:19:24;;;;;;;10.95;10.15;;;7.40;58.60;;;;;;20823;6812;117380;-77
2023/04/21 02:21:50;;;;;;;12.90;12.00;;;7.30;58.60;;;;;;20588;6812;307006;-77
2023/04/21 02:24:16;;;;;;;10.60;9.80;;;7.30;59.10;;;;;;20824;6812;118025;-77
2023/04/21 02:26:42;;;;;;;12.50;11.70;;;7.30;58.40;;;;;;20610;6812;280021;-77
2023/04/21 02:29:08;;;;;;;11.03;10.13;;;7.30;58.30;;;;;;20830;6810;120551;-77
2023/04/21 02:31:34;;;;;;;9.33;8.63;;;7.30;58.30;;;;;;20825;6812;117208;-79
2023/04/21 02:34:00;;;;;;;12.65;11.75;;;7.10;59.00;;;;;;20614;6812;309060;-77
2023/04/21 02:36:25;;;;;;;10.63;9.80;;;7.10;59.00;;;;;;20821;6812;118025;-77
2023/04/21 02:38:52;;;;;;;12.82;12.02;;;7.10;59.00;;;;;;20612;6812;336002;-77
2023/04/21 02:41:17;;;;;;;10.90;10.00;;;7.20;59.50;;;;;;20822;6812;117436;-77
2023/04/21 02:43:44;;;;;;;12.97;12.00;;;7.30;58.70;;;;;;20592;6812;307358;-77
2023/04/21 02:46:09;;;;;;;12.93;12.03;;;7.30;58.60;;;;;;20625;6812;277798;-77
2023/04/21 02:48:35;;;;;;;12.07;11.17;;;7.60;57.70;;;;;;20623;6812;301293;-77
2023/04/21 02:51:00;;;;;;;12.83;11.87;;;7.80;56.90;;;;;;20612;6812;306246;-76
2023/04/21 02:53:26;;;;;;;10.23;9.43;;;8.00;56.40;;;;;;20821;6812;118059;-78
2023/04/21 02:55:51;;;;;;;9.32;8.70;;;7.70;56.60;;;;;;20810;6812;117866;-79
2023/04/21 02:58:17;;;;;;;12.13;11.23;;;7.40;57.70;;;;;;20614;6812;310753;-76
2023/04/21 03:00:43;;;;;;;12.37;11.57;;;7.40;57.70;;;;;;20610;6812;336105;-77
2023/04/21 03:03:08;;;;;;;8.82;8.23;;;7.60;57.20;;;;;;20828;6812;117259;-76
2023/04/21 03:05:34;;;;;;;7.33;6.83;;;7.60;57.40;;;;;;20823;6812;116930;-77
2023/04/21 03:08:00;;;;;;;9.47;8.80;;;7.40;59.10;;;;;;20600;6812;335778;-76
2023/04/21 03:10:26;;;;;;;8.23;7.67;;;7.30;59.00;;;;;;20825;6812;118067;-76
2023/04/21 03:12:52;;;;;;;7.50;7.00;;;7.40;59.30;;;;;;20829;6812;116946;-76
2023/04/21 03:15:18;;;;;;;7.10;6.50;;;7.20;59.90;;;;;;20824;6812;116923;-77
2023/04/21 03:17:42;;;;;;;7.20;6.70;;;7.00;60.40;;;;;;20804;6812;117432;-77
2023/04/21 03:20:09;;;;;;;11.73;10.50;;;6.90;61.10;;;;;;20617;6812;310378;-77
2023/04/21 03:22:33;;;;;;;11.30;10.20;;;7.10;60.30;;;;;;20613;6812;336501;-77
2023/04/21 03:24:59;;;;;;;8.43;7.80;;;7.40;58.10;;;;;;20824;6812;117317;-76
2023/04/21 03:27:25;;;;;;;8.38;7.78;;;7.40;58.10;;;;;;20826;6812;117504;-77
2023/04/21 03:29:52;;;;;;;8.52;6.93;;;7.10;58.60;;;;;;20806;6812;117352;-76
2023/04/21 03:32:17;;;;;;;8.17;7.57;;;6.90;59.30;;;;;;20821;6812;117125;-77
2023/04/21 03:34:43;;;;;;;7.90;7.30;;;6.70;59.90;;;;;;20822;6812;117379;-76
2023/04/21 03:37:08;;;;;;;7.70;7.18;;;6.60;60.50;;;;;;20822;6812;117629;-77
2023/04/21 03:39:34;;;;;;;16.75;7.72;;;6.50;60.90;;;;;;20832;6810;116942;-77
2023/04/21 03:42:00;;;;;;;55.10;8.88;;;6.40;61.20;;;;;;20826;6812;117725;-77
2023/04/21 03:44:26;;;;;;;79.43;13.63;;;6.30;61.50;;;;;;20617;6812;300697;-77
2023/04/21 03:46:54;;;;;;;139.20;13.13;;;6.50;60.80;;;;;;20829;6812;117265;-77
2023/04/21 03:49:19;;;;;;;261.62;19.98;;;6.60;60.70;;;;;;20614;6812;276726;-77
2023/04/21 03:51:45;;;;;;;241.80;19.10;;;6.80;60.30;;;;;;20584;6812;307177;-78
2023/04/21 03:54:11;;;;;;;1113.57;37.90;;;7.50;59.00;;;;;;20616;6812;277021;-77
2023/04/21 03:56:37;;;;;;;878.85;35.22;;;7.50;58.90;;;;;;20620;6812;305981;-78
2023/04/21 03:59:02;;;;;;;488.65;27.50;;;7.70;58.20;;;;;;20611;6812;303302;-78
2023/04/21 04:01:30;;;;;;;516.97;23.15;;;7.70;57.90;;;;;;20829;6812;117890;-77
2023/04/21 04:03:57;;;;;;;256.20;17.40;;;7.40;58.70;;;;;;20805;6812;117647;-78
2023/04/21 04:09:48;;;;;;;325.37;18.30;;;7.20;59.80;;;;;;20765;6812;117798;-77
2023/04/21 04:12:15;;;;;;;390.45;18.80;;;6.90;60.90;;;;;;20828;6812;118052;-77
2023/04/21 04:14:41;;;;;;;407.45;25.42;;;6.90;61.30;;;;;;20616;6812;282195;-80
2023/04/21 04:17:07;;;;;;;521.43;25.53;;;6.90;61.30;;;;;;20825;6812;118574;-78
2023/04/21 04:19:32;;;;;;;544.90;27.50;;;7.00;61.10;;;;;;20615;6812;282249;-77
2023/04/21 04:21:59;;;;;;;490.62;28.67;;;7.10;60.50;;;;;;20572;6812;280373;-77
2023/04/21 04:24:25;;;;;;;551.00;25.37;;;7.40;59.50;;;;;;20605;6812;336258;-75
2023/04/21 04:26:52;;;;;;;342.80;21.02;;;7.70;58.60;;;;;;20813;6812;117883;-73
2023/04/21 04:29:16;;;;;;;647.27;26.83;;;7.60;58.80;;;;;;20592;6812;276926;-76
2023/04/21 04:31:41;;;;;;;303.98;17.48;;;7.60;58.00;;;;;;20789;6812;117343;-76
2023/04/21 04:34:08;;;;;;;247.18;16.70;;;7.40;58.00;;;;;;20820;6812;124535;-75
2023/04/21 04:36:33;;;;;;;162.20;13.80;;;7.10;58.80;;;;;;20824;6812;123321;-75
2023/04/21 04:38:58;;;;;;;82.93;12.48;;;6.80;59.90;;;;;;20802;6812;117856;-74
2023/04/21 04:41:25;;;;;;;86.97;15.37;;;6.80;60.80;;;;;;20588;6812;340169;-74
2023/04/21 04:43:52;;;;;;;73.10;13.33;;;6.90;60.80;;;;;;20800;6812;117407;-74
2023/04/21 04:46:19;;;;;;;124.80;13.80;;;6.90;60.80;;;;;;20810;6812;117475;-76
2023/04/21 04:48:42;;;;;;;70.03;24.08;;;6.80;61.20;;;;;;20599;6812;277035;-76
2023/04/21 04:51:08;;;;;;;121.10;14.85;;;7.00;60.50;;;;;;20823;6811;117234;-73
2023/04/21 04:53:35;;;;;;;128.93;14.43;;;6.80;61.60;;;;;;20816;6812;117287;-77
2023/04/21 04:56:00;;;;;;;103.60;12.67;;;6.80;60.90;;;;;;20652;6812;117712;-73
2023/04/21 04:58:27;;;;;;;71.35;16.10;;;6.70;61.50;;;;;;20618;6812;277231;-74
2023/04/21 05:00:54;;;;;;;156.73;16.37;;;6.90;60.70;;;;;;20812;6812;118146;-75
2023/04/21 05:03:19;;;;;;;450.40;22.03;;;7.00;60.70;;;;;;20835;6812;117799;-73
2023/04/21 05:05:45;;;;;;;259.62;22.20;;;6.80;61.20;;;;;;20589;6812;311657;-74
2023/04/21 05:08:11;;;;;;;274.00;22.40;;;7.40;59.60;;;;;;20605;6812;310030;-76
2023/04/21 05:10:37;;;;;;;299.87;23.23;;;7.40;59.50;;;;;;20604;6812;280029;-74
2023/04/21 05:13:02;;;;;;;320.37;25.05;;;7.70;58.40;;;;;;20606;6812;277930;-75
2023/04/21 05:15:28;;;;;;;400.50;24.03;;;7.90;57.70;;;;;;20617;6812;277563;-73
2023/04/21 05:17:54;;;;;;;383.15;20.85;;;8.10;57.50;;;;;;20799;6812;187365;-75
2023/04/21 05:20:19;;;;;;;402.40;21.30;;;7.90;57.70;;;;;;20829;6812;117596;-73
2023/04/21 05:22:45;;;;;;;1126.80;46.27;;;7.60;58.80;;;;;;20825;6812;117628;-75
2023/04/21 05:25:14;;;;;;;835.97;38.67;;;7.30;59.80;;;;;;20620;6812;308042;-74
2023/04/21 05:27:36;;;;;;;164.37;18.17;;;7.40;59.70;;;;;;20743;6812;118081;-74
2023/04/21 05:30:01;;;;;;;611.95;31.25;;;7.40;60.00;;;;;;20832;6812;117643;-74
2023/04/21 05:32:28;;;;;;;400.03;24.50;;;7.20;61.60;;;;;;20863;6812;116852;-73
2023/04/21 05:34:53;;;;;;;248.03;21.37;;;7.10;61.30;;;;;;20613;6812;277917;-75
2023/04/21 05:37:20;;;;;;;395.98;27.62;;;7.30;60.90;;;;;;20825;6812;118607;-73
2023/04/21 05:39:45;;;;;;;355.80;23.53;;;7.30;60.70;;;;;;20587;6812;279830;-76
2023/04/21 05:42:11;;;;;;;532.70;25.98;;;7.50;60.50;;;;;;20609;6812;306951;-73
2023/04/21 05:44:36;;;;;;;1072.03;34.28;;;7.80;59.20;;;;;;20614;6812;277330;-73
2023/04/21 05:47:06;;;;;;;534.13;24.65;;;8.10;57.80;;;;;;20817;6812;117676;-73
2023/04/21 05:49:31;;;;;;;412.45;22.48;;;8.00;58.00;;;;;;20595;6812;282643;-73
2023/04/21 05:51:57;;;;;;;343.58;19.42;;;7.80;58.00;;;;;;20798;6812;117883;-71
2023/04/21 05:54:23;;;;;;;268.07;16.77;;;7.80;58.00;;;;;;20819;6812;117875;-73
2023/04/21 05:56:48;;;;;;;195.23;15.98;;;7.60;58.80;;;;;;20823;6812;117904;-72
2023/04/21 05:59:14;;;;;;;155.25;14.82;;;7.30;59.60;;;;;;20830;6812;117467;-75
2023/04/21 06:01:39;;;;;;;71.07;16.67;;;7.20;60.70;;;;;;20594;6812;310888;-74
2023/04/21 06:04:06;;;;;;;52.88;16.92;;;7.80;60.00;;;;;;20611;6811;318604;-75
2023/04/21 06:06:31;;;;;;;48.75;17.00;;;7.80;60.00;;;;;;20616;6812;316211;-75
2023/04/21 06:08:57;;;;;;;28.55;12.37;;;8.20;58.80;;;;;;20720;6812;68220;-74
2023/04/21 06:11:23;;;;;;;12.45;11.45;;;7.90;59.90;;;;;;20847;6812;68204;-74
2023/04/21 06:13:49;;;;;;;17.33;14.87;;;8.00;59.90;;;;;;20586;6812;326852;-75
2023/04/21 06:16:14;;;;;;;36.17;14.15;;;8.10;59.40;;;;;;20824;6812;118001;-74
2023/04/21 06:18:40;;;;;;;18.02;16.12;;;8.10;59.50;;;;;;20606;6812;335922;-73
2023/04/21 06:21:05;;;;;;;14.73;13.35;;;8.20;58.90;;;;;;20825;6812;117373;-74
2023/04/21 06:23:31;;;;;;;14.00;12.60;;;8.30;59.30;;;;;;20820;6812;117207;-75
2023/04/21 06:26:04;;;;;;;13.00;11.90;;;8.20;59.90;;;;;;20807;6812;117447;-74
2023/04/21 06:28:29;;;;;;;17.80;16.20;;;8.00;60.30;;;;;;20615;6812;277065;-74
2023/04/21 06:30:54;;;;;;;16.83;15.50;;;8.20;59.90;;;;;;20619;6812;306579;-74
2023/04/21 06:33:20;;;;;;;13.87;12.67;;;8.60;58.40;;;;;;20836;6812;117140;-74
2023/04/21 06:35:45;;;;;;;17.03;15.70;;;8.60;59.10;;;;;;20605;6812;310354;-72
2023/04/21 06:38:12;;;;;;;15.02;13.62;;;8.70;58.00;;;;;;20826;6812;117463;-76
2023/04/21 06:40:38;;;;;;;23.30;15.55;;;8.60;56.90;;;;;;20608;6812;308088;-73
2023/04/21 06:43:04;;;;;;;13.40;12.30;;;8.60;56.90;;;;;;20821;6812;117788;-74
2023/04/21 06:45:30;;;;;;;49.10;15.50;;;8.50;57.20;;;;;;20612;6812;308177;-74
2023/04/21 06:47:55;;;;;;;88.57;16.90;;;8.50;57.10;;;;;;20575;6812;292578;-75
2023/04/21 06:50:21;;;;;;;57.50;16.45;;;8.80;56.80;;;;;;20619;6812;335985;-75
2023/04/21 06:52:47;;;;;;;62.10;18.42;;;9.20;55.70;;;;;;20617;6812;277976;-74
2023/04/21 06:55:13;;;;;;;202.70;21.63;;;9.10;55.60;;;;;;20621;6812;307266;-75
2023/04/21 06:57:38;;;;;;;84.53;17.08;;;9.30;55.40;;;;;;20815;6812;117963;-74
2023/04/21 07:00:06;;;;;;;57.10;14.93;;;8.80;57.90;;;;;;20828;6812;117534;-73
2023/04/21 07:02:32;;;;;;;105.70;21.52;;;8.80;57.30;;;;;;20599;6812;306988;-73
2023/04/21 07:04:58;;;;;;;386.10;25.23;;;8.90;58.00;;;;;;20825;6812;117765;-74
2023/04/21 07:07:24;;;;;;;66.80;16.27;;;8.90;58.00;;;;;;20822;6812;117469;-74
2023/04/21 07:09:50;;;;;;;51.08;15.77;;;8.80;58.70;;;;;;20800;6812;117490;-74
2023/04/21 07:12:15;;;;;;;111.32;17.35;;;8.60;59.40;;;;;;20825;6812;117797;-73
2023/04/21 07:14:42;;;;;;;54.83;15.53;;;8.40;61.10;;;;;;20823;6811;117335;-74
2023/04/21 07:17:08;;;;;;;59.63;14.77;;;8.30;60.30;;;;;;20818;6812;117823;-74
2023/04/21 07:19:35;;;;;;;59.93;41.70;;;8.50;59.70;;;;;;20609;6812;306600;-77
2023/04/21 07:22:01;;;;;;;61.15;19.52;;;8.90;59.10;;;;;;20433;6812;317697;-74
2023/04/21 07:24:27;;;;;;;21.70;15.20;;;8.90;59.00;;;;;;20823;6812;117183;-74
2023/04/21 07:26:52;;;;;;;37.03;17.02;;;9.10;59.10;;;;;;20599;6812;306528;-75
2023/04/21 07:29:18;;;;;;;60.63;14.05;;;9.30;58.50;;;;;;20824;6812;117259;-73
2023/04/21 07:31:45;;;;;;;14.70;13.17;;;9.40;58.50;;;;;;20800;6812;123659;-74
2023/04/21 07:34:09;;;;;;;18.17;16.37;;;9.20;58.60;;;;;;20611;6812;307015;-74
2023/04/21 07:36:34;;;;;;;16.85;15.43;;;9.30;57.40;;;;;;20610;6812;277097;-74
2023/04/21 07:39:00;;;;;;;15.53;12.87;;;9.70;56.90;;;;;;20824;6812;117433;-75
2023/04/21 07:41:26;;;;;;;16.08;14.77;;;9.80;57.30;;;;;;20608;6812;307338;-75
2023/04/21 07:43:51;;;;;;;15.87;14.47;;;9.90;56.90;;;;;;20803;6812;117215;-72
2023/04/21 07:46:17;;;;;;;30.20;14.05;;;10.10;56.60;;;;;;20824;6812;117900;-72
2023/04/21 07:48:45;;;;;;;17.60;16.10;;;10.10;57.40;;;;;;20612;6812;277440;-73
2023/04/21 07:51:10;;;;;;;16.43;15.00;;;10.60;56.00;;;;;;20823;6812;117384;-73
2023/04/21 07:53:35;;;;;;;16.77;15.13;;;10.60;56.00;;;;;;20599;6812;285473;-76
2023/04/21 07:56:02;;;;;;;14.70;13.50;;;10.80;54.40;;;;;;20830;6812;117998;-74
2023/04/21 07:58:27;;;;;;;17.25;15.95;;;10.80;54.30;;;;;;20614;6812;336475;-74
2023/04/21 08:00:53;;;;;;;14.67;13.37;;;10.90;52.90;;;;;;20821;6812;120938;-73
2023/04/21 08:03:19;;;;;;;13.33;12.23;;;11.00;54.50;;;;;;20820;6812;117412;-73
2023/04/21 08:05:44;;;;;;;14.93;13.83;;;10.90;54.90;;;;;;20564;6812;335558;-71
2023/04/21 08:08:10;;;;;;;15.85;14.65;;;11.00;53.40;;;;;;20626;6812;276811;-71
2023/04/21 08:10:35;;;;;;;13.60;12.48;;;11.40;53.30;;;;;;20836;6812;117490;-71
2023/04/21 08:13:02;;;;;;;15.77;14.57;;;11.60;53.70;;;;;;20630;6812;308433;-70
2023/04/21 08:15:26;;;;;;;12.33;11.40;;;11.80;52.80;;;;;;20824;6812;117579;-73
2023/04/21 08:17:53;;;;;;;14.70;13.70;;;11.80;53.20;;;;;;20589;6812;322373;-72
2023/04/21 08:20:17;;;;;;;12.48;11.57;;;12.00;51.70;;;;;;20824;6812;117637;-73
2023/04/21 08:22:44;;;;;;;12.75;11.77;;;12.00;52.30;;;;;;20826;6812;117531;-72
2023/04/21 08:25:10;;;;;;;14.23;13.23;;;12.00;53.50;;;;;;20619;6811;277757;-74
2023/04/21 08:27:39;;;;;;;12.90;11.90;;;12.20;52.70;;;;;;20818;6811;117415;-73
2023/04/21 08:30:04;;;;;;;13.33;12.10;;;12.50;53.30;;;;;;20839;6812;117647;-74
2023/04/21 08:32:30;;;;;;;15.30;14.02;;;12.50;53.70;;;;;;20618;6812;335897;-74
2023/04/21 08:34:55;;;;;;;13.17;12.07;;;12.80;52.50;;;;;;20830;6812;117942;-74
2023/04/21 08:37:21;;;;;;;11.90;11.10;;;12.90;53.10;;;;;;20827;6812;117506;-73
2023/04/21 08:39:47;;;;;;;12.50;11.60;;;13.00;53.80;;;;;;20588;6812;301279;-74
2023/04/21 08:42:14;;;;;;;14.30;13.20;;;13.20;51.40;;;;;;20607;6812;307466;-77
2023/04/21 08:44:40;;;;;;;11.60;10.70;;;13.70;51.00;;;;;;20815;6812;117326;-76
2023/04/21 08:47:05;;;;;;;12.47;11.53;;;13.90;51.60;;;;;;20603;6812;306541;-78
2023/04/21 08:49:31;;;;;;;10.93;10.13;;;14.30;50.50;;;;;;20820;6812;123240;-77
2023/04/21 08:51:56;;;;;;;9.20;8.40;;;14.30;50.40;;;;;;20817;6812;117960;-76
2023/04/21 08:54:22;;;;;;;8.60;8.00;;;14.30;51.30;;;;;;20828;6812;117754;-75
2023/04/21 08:56:48;;;;;;;7.30;6.82;;;14.30;52.20;;;;;;20625;6812;311197;-75
2023/04/21 08:59:13;;;;;;;6.50;6.10;;;14.60;48.60;;;;;;20834;6812;118986;-76
2023/04/21 09:02:05;;;;;;;7.78;7.32;;;14.70;49.10;;;;;;20602;6812;336815;-76
2023/04/21 09:04:30;;;;;;;7.17;6.70;;;15.00;47.70;;;;;;20820;6812;117103;-74
2023/04/21 09:06:57;;;;;;;8.57;8.07;;;15.20;49.20;;;;;;20615;6812;308076;-75
2023/04/21 09:09:23;;;;;;;8.10;7.60;;;15.50;47.50;;;;;;20614;6812;276999;-74
2023/04/21 09:11:56;;;;;;;8.13;7.63;;;15.90;48.20;;;;;;20596;6812;295100;-74
2023/04/21 09:14:21;;;;;;;7.57;6.97;;;16.20;46.60;;;;;;20794;6812;117236;-74
2023/04/21 09:16:47;;;;;;;7.23;6.63;;;16.10;48.30;;;;;;20821;6812;117935;-74
2023/04/21 09:19:16;;;;;;;6.40;6.00;;;16.10;48.30;;;;;;20754;6812;117453;-75
2023/04/21 09:21:40;;;;;;;6.10;5.72;;;16.10;46.00;;;;;;20571;6812;306996;-74
2023/04/21 09:24:06;;;;;;;5.90;5.60;;;16.10;45.90;;;;;;20606;6812;307515;-75
2023/04/21 09:26:33;;;;;;;6.37;5.97;;;16.50;45.00;;;;;;20614;6812;306460;-76
2023/04/21 09:28:58;;;;;;;5.33;5.13;;;16.70;44.70;;;;;;20830;6812;117491;-73
2023/04/21 09:31:24;;;;;;;6.87;6.47;;;16.70;46.10;;;;;;20617;6812;337269;-75
2023/04/21 09:33:50;;;;;;;5.47;5.17;;;16.70;44.30;;;;;;20806;6812;117152;-77
2023/04/21 09:36:26;;;;;;;7.43;6.97;;;16.70;45.60;;;;;;20606;6812;276945;-77
2023/04/21 09:38:57;;;;;;;6.30;5.90;;;16.80;46.50;;;;;;20818;6811;118051;-74
2023/04/21 09:41:24;;;;;;;6.93;6.53;;;16.80;47.00;;;;;;20557;6812;277507;-75
2023/04/21 09:43:48;;;;;;;6.60;6.10;;;16.90;45.00;;;;;;20794;6812;121045;-72
2023/04/21 09:46:14;;;;;;;5.97;5.57;;;17.00;46.30;;;;;;20816;6812;117453;-72
2023/04/21 09:48:39;;;;;;;11.93;11.03;;;16.90;47.10;;;;;;20809;6812;119314;-72
2023/04/21 09:51:05;;;;;;;7.57;7.15;;;16.80;47.90;;;;;;20611;6812;332328;-72
2023/04/21 09:53:31;;;;;;;7.12;6.72;;;16.90;46.80;;;;;;20617;6812;309877;-72
2023/04/21 09:55:56;;;;;;;6.40;6.10;;;17.30;46.30;;;;;;20595;6812;279952;-73
2023/04/21 09:58:23;;;;;;;6.68;6.30;;;17.80;44.00;;;;;;20606;6812;281404;-72
2023/04/21 10:00:48;;;;;;;7.33;6.93;;;17.80;44.00;;;;;;20601;6812;277060;-75
2023/04/21 10:03:14;;;;;;;6.15;5.85;;;18.00;44.40;;;;;;20816;6812;117065;-75
2023/04/21 10:05:39;;;;;;;6.10;5.70;;;17.90;45.50;;;;;;20797;6812;144226;-72
2023/04/21 10:08:06;;;;;;;6.95;6.55;;;17.70;45.40;;;;;;20613;6812;276602;-71
2023/04/21 10:10:32;;;;;;;6.57;6.17;;;17.70;45.40;;;;;;20813;6812;117088;-72
2023/04/21 10:12:57;;;;;;;7.10;6.70;;;17.70;46.10;;;;;;20819;6812;117126;-72
2023/04/21 10:15:30;;;;;;;7.97;7.47;;;17.60;45.80;;;;;;20620;6812;277063;-72
2023/04/21 10:17:55;;;;;;;7.10;6.70;;;17.60;45.40;;;;;;20787;6812;117575;-73
2023/04/21 10:20:21;;;;;;;7.00;6.50;;;17.60;46.70;;;;;;20769;6812;121443;-74
2023/04/21 10:22:46;;;;;;;7.28;6.80;;;17.60;48.10;;;;;;20822;6812;117516;-74
2023/04/21 10:25:13;;;;;;;8.23;7.72;;;17.60;48.50;;;;;;20571;6812;289484;-74
2023/04/21 10:27:42;;;;;;;8.05;7.47;;;17.70;45.00;;;;;;20798;6812;122996;-77
2023/04/21 10:30:16;;;;;;;7.80;7.30;;;17.70;46.10;;;;;;20814;6812;117704;-75
2023/04/21 10:32:42;;;;;;;7.60;7.00;;;17.70;47.20;;;;;;20814;6812;117821;-73
2023/04/21 10:35:10;;;;;;;8.10;7.60;;;17.60;48.10;;;;;;20603;6812;311339;-74
2023/04/21 10:37:37;;;;;;;8.23;7.63;;;17.80;45.90;;;;;;20767;6812;117540;-73
2023/04/21 10:40:08;;;;;;;8.15;7.65;;;17.90;46.60;;;;;;20616;6812;306925;-73
2023/04/21 10:42:28;;;;;;;7.50;6.90;;;18.10;44.90;;;;;;20803;6812;117174;-73
2023/04/21 10:44:57;;;;;;;7.35;6.93;;;18.20;46.00;;;;;;20594;6812;340250;-74
2023/04/21 10:47:43;;;;;;;6.73;6.33;;;18.30;44.50;;;;;;20799;6812;117367;-74
2023/04/21 10:50:24;;;;;;;7.47;6.97;;;18.40;45.70;;;;;;20818;6810;118018;-74
2023/04/21 10:53:11;;;;;;;7.80;7.30;;;18.30;46.70;;;;;;20583;6812;282140;-74
2023/04/21 10:55:36;;;;;;;7.80;7.20;;;18.40;44.40;;;;;;20805;6812;117344;-74
2023/04/21 10:58:03;;;;;;;7.43;6.93;;;18.40;43.70;;;;;;20612;6812;310437;-74
2023/04/21 11:00:28;;;;;;;6.40;6.10;;;18.50;43.80;;;;;;20820;6812;117551;-78
2023/04/21 11:02:57;;;;;;;6.40;6.00;;;18.40;45.30;;;;;;20824;6812;117126;-76
2023/04/21 11:05:26;;;;;;;7.10;6.60;;;18.30;46.10;;;;;;20828;6812;117364;-74
2023/04/21 11:07:51;;;;;;;7.17;6.67;;;18.20;47.00;;;;;;20799;6812;117668;-73
2023/04/21 11:10:17;;;;;;;7.07;6.57;;;18.10;47.30;;;;;;20829;6812;118146;-73
2023/04/21 11:12:42;;;;;;;8.07;7.40;;;18.00;47.40;;;;;;20609;6812;306901;-74
2023/04/21 11:15:09;;;;;;;7.87;7.37;;;18.20;47.50;;;;;;20826;6812;117570;-75
2023/04/21 11:17:37;;;;;;;8.00;7.50;;;18.40;46.40;;;;;;20603;6812;305524;-73
2023/04/21 11:20:01;;;;;;;8.30;7.80;;;18.40;45.80;;;;;;20434;6812;306762;-72
2023/04/21 11:22:29;;;;;;;7.70;7.18;;;18.70;45.60;;;;;;20825;6812;117401;-73
2023/04/21 11:24:56;;;;;;;8.20;7.70;;;18.70;45.50;;;;;;20823;6812;121475;-76
2023/04/21 11:27:21;;;;;;;8.10;7.40;;;18.60;46.30;;;;;;20816;6812;117574;-73
2023/04/21 11:29:47;;;;;;;7.43;6.93;;;18.40;46.90;;;;;;20799;6812;117754;-73
2023/04/21 11:32:12;;;;;;;7.57;7.07;;;18.30;47.50;;;;;;20802;6812;118243;-74
2023/04/21 11:34:38;;;;;;;9.70;9.02;;;18.30;48.00;;;;;;20592;6812;305737;-72
2023/04/21 11:37:07;;;;;;;9.30;8.70;;;18.70;45.80;;;;;;20592;6812;309545;-72
2023/04/21 11:39:33;;;;;;;9.60;9.00;;;18.70;45.70;;;;;;20593;6812;277550;-75
2023/04/21 11:41:59;;;;;;;8.85;8.25;;;19.10;44.50;;;;;;20578;6812;306141;-73
2023/04/21 11:44:40;;;;;;;9.30;8.70;;;19.30;42.90;;;;;;20612;6812;306880;-73
2023/04/21 11:47:19;;;;;;;9.40;8.77;;;19.60;43.80;;;;;;20828;6812;116972;-74
2023/04/21 11:49:48;;;;;;;8.50;8.00;;;19.50;45.10;;;;;;20806;6812;118068;-74
2023/04/21 11:52:34;;;;;;;8.70;8.00;;;19.30;45.80;;;;;;20815;6812;117413;-72
2023/04/21 11:55:06;;;;;;;8.87;8.27;;;19.10;46.30;;;;;;20811;6812;117045;-72
2023/04/21 11:57:32;;;;;;;8.67;8.07;;;18.90;46.70;;;;;;20808;6812;117097;-73
2023/04/21 11:59:57;;;;;;;10.50;9.90;;;18.70;47.20;;;;;;20580;6811;307385;-74
2023/04/21 12:02:23;;;;;;;9.13;8.63;;;18.80;45.00;;;;;;20575;6811;277014;-73
2023/04/21 12:05:05;;;;;;;8.07;7.53;;;19.20;45.80;;;;;;20794;6812;117270;-75
2023/04/21 12:07:30;;;;;;;7.63;7.13;;;19.30;46.40;;;;;;20807;6812;117183;-76
2023/04/21 12:09:56;;;;;;;7.93;7.43;;;19.20;46.50;;;;;;20802;6812;117532;-74
2023/04/21 12:12:23;;;;;;;8.05;7.45;;;19.00;46.80;;;;;;20828;6812;117308;-74
2023/04/21 12:14:47;;;;;;;6.95;6.45;;;18.90;47.30;;;;;;20820;6812;116995;-74
2023/04/21 12:17:13;;;;;;;8.00;7.40;;;18.80;48.20;;;;;;20823;6812;123463;-75
2023/04/21 12:19:39;;;;;;;7.80;7.20;;;18.80;48.20;;;;;;20800;6812;117476;-75
2023/04/21 12:22:08;;;;;;;8.40;7.67;;;18.80;48.10;;;;;;20785;6812;117903;-73
2023/04/21 12:24:33;;;;;;;8.53;8.03;;;18.80;48.00;;;;;;20535;6812;306780;-75
2023/04/21 12:26:59;;;;;;;8.65;8.10;;;19.00;45.60;;;;;;20580;6812;295358;-76
2023/04/21 12:29:26;;;;;;;9.00;8.50;;;19.40;44.60;;;;;;20596;6812;306838;-75